sensor_id;sensor_type;location;lat;lon;timestamp;P1;durP1;ratioP1;P2;durP2;ratioP2
1366;SDS011;16877;48.810;9.282;2023-02-28T00:01:08;3.47;;;2.60;;
1366;SDS011;16877;48.810;9.282;2023-02-28T00:03:35;3.90;;;2.50;;
1366;SDS011;16877;48.810;9.282;2023-02-28T00:06:06;4.50;;;2.80;;
1366;SDS011;16877;48.810;9.282;2023-02-28T00:08:35;3.37;;;2.33;;
1366;SDS011;16877;48.810;9.282;2023-02-28T00:11:04;4.20;;;3.37;;
1366;SDS011;16877;48.810;9.282;2023-02-28T00:13:35;4.70;;;3.33;;
1366;SDS011;16877;48.810;9.282;2023-02-28T00:16:11;4.60;;;2.60;;
1366;SDS011;16877;48.810;9.282;2023-02-28T00:18:40;4.43;;;2.87;;
1366;SDS011;16877;48.810;9.282;2023-02-28T00:21:14;3.70;;;2.37;;
1366;SDS011;16877;48.810;9.282;2023-02-28T00:23:41;4.80;;;2.90;;
1366;SDS011;16877;48.810;9.282;2023-02-28T00:26:09;6.07;;;3.50;;
1366;SDS011;16877;48.810;9.282;2023-02-28T00:28:38;4.47;;;3.20;;
1366;SDS011;16877;48.810;9.282;2023-02-28T00:31:17;4.07;;;2.73;;
1366;SDS011;16877;48.810;9.282;2023-02-28T00:33:45;5.20;;;3.00;;
1366;SDS011;16877;48.810;9.282;2023-02-28T00:36:13;4.30;;;2.83;;
1366;SDS011;16877;48.810;9.282;2023-02-28T00:38:40;3.80;;;2.90;;
1366;SDS011;16877;48.810;9.282;2023-02-28T00:41:08;3.50;;;2.63;;
1366;SDS011;16877;48.810;9.282;2023-02-28T00:43:36;4.27;;;2.90;;
1366;SDS011;16877;48.810;9.282;2023-02-28T00:46:05;4.13;;;2.97;;
1366;SDS011;16877;48.810;9.282;2023-02-28T00:48:33;5.90;;;3.80;;
1366;SDS011;16877;48.810;9.282;2023-02-28T00:51:01;3.83;;;2.73;;
1366;SDS011;16877;48.810;9.282;2023-02-28T00:53:28;5.87;;;3.43;;
1366;SDS011;16877;48.810;9.282;2023-02-28T00:55:57;6.47;;;4.03;;
1366;SDS011;16877;48.810;9.282;2023-02-28T00:58:25;4.40;;;2.97;;
1366;SDS011;16877;48.810;9.282;2023-02-28T01:00:58;4.00;;;3.07;;
1366;SDS011;16877;48.810;9.282;2023-02-28T01:03:26;5.77;;;3.57;;
1366;SDS011;16877;48.810;9.282;2023-02-28T01:05:53;3.70;;;3.00;;
1366;SDS011;16877;48.810;9.282;2023-02-28T01:08:20;5.47;;;3.47;;
1366;SDS011;16877;48.810;9.282;2023-02-28T01:10:48;4.33;;;3.33;;
1366;SDS011;16877;48.810;9.282;2023-02-28T01:13:15;4.53;;;3.30;;
1366;SDS011;16877;48.810;9.282;2023-02-28T01:15:43;4.50;;;3.23;;
1366;SDS011;16877;48.810;9.282;2023-02-28T01:18:17;6.37;;;3.80;;
1366;SDS011;16877;48.810;9.282;2023-02-28T01:20:44;4.40;;;2.90;;
1366;SDS011;16877;48.810;9.282;2023-02-28T01:23:12;5.93;;;3.67;;
1366;SDS011;16877;48.810;9.282;2023-02-28T01:25:39;6.93;;;2.90;;
1366;SDS011;16877;48.810;9.282;2023-02-28T01:28:07;4.63;;;3.50;;
1366;SDS011;16877;48.810;9.282;2023-02-28T01:30:34;3.60;;;2.60;;
1366;SDS011;16877;48.810;9.282;2023-02-28T01:33:03;3.37;;;2.43;;
1366;SDS011;16877;48.810;9.282;2023-02-28T01:35:33;6.07;;;3.70;;
1366;SDS011;16877;48.810;9.282;2023-02-28T01:38:00;4.67;;;3.37;;
1366;SDS011;16877;48.810;9.282;2023-02-28T01:40:28;4.30;;;2.80;;
1366;SDS011;16877;48.810;9.282;2023-02-28T01:42:56;4.07;;;2.83;;
1366;SDS011;16877;48.810;9.282;2023-02-28T01:45:23;4.53;;;3.03;;
1366;SDS011;16877;48.810;9.282;2023-02-28T01:47:54;3.93;;;2.67;;
1366;SDS011;16877;48.810;9.282;2023-02-28T01:50:25;4.07;;;3.10;;
1366;SDS011;16877;48.810;9.282;2023-02-28T01:52:58;3.83;;;2.60;;
1366;SDS011;16877;48.810;9.282;2023-02-28T01:55:28;5.17;;;3.70;;
1366;SDS011;16877;48.810;9.282;2023-02-28T01:57:57;6.50;;;3.30;;
1366;SDS011;16877;48.810;9.282;2023-02-28T02:00:27;2.93;;;2.13;;
1366;SDS011;16877;48.810;9.282;2023-02-28T02:03:00;4.60;;;3.10;;
1366;SDS011;16877;48.810;9.282;2023-02-28T02:05:34;4.17;;;3.27;;
1366;SDS011;16877;48.810;9.282;2023-02-28T02:08:05;3.73;;;3.13;;
1366;SDS011;16877;48.810;9.282;2023-02-28T02:10:36;4.47;;;3.00;;
1366;SDS011;16877;48.810;9.282;2023-02-28T02:13:11;4.07;;;3.03;;
1366;SDS011;16877;48.810;9.282;2023-02-28T02:15:49;4.20;;;3.60;;
1366;SDS011;16877;48.810;9.282;2023-02-28T02:18:29;5.00;;;3.30;;
1366;SDS011;16877;48.810;9.282;2023-02-28T02:21:07;5.10;;;3.20;;
1366;SDS011;16877;48.810;9.282;2023-02-28T02:24:05;4.80;;;3.10;;
1366;SDS011;16877;48.810;9.282;2023-02-28T02:27:07;5.27;;;3.37;;
1366;SDS011;16877;48.810;9.282;2023-02-28T02:33:02;4.30;;;3.13;;
1366;SDS011;16877;48.810;9.282;2023-02-28T02:36:09;5.53;;;3.87;;
1366;SDS011;16877;48.810;9.282;2023-02-28T02:38:47;3.03;;;2.70;;
1366;SDS011;16877;48.810;9.282;2023-02-28T02:41:19;5.17;;;3.77;;
1366;SDS011;16877;48.810;9.282;2023-02-28T02:43:53;4.70;;;3.30;;
1366;SDS011;16877;48.810;9.282;2023-02-28T02:46:31;4.90;;;3.30;;
1366;SDS011;16877;48.810;9.282;2023-02-28T02:49:02;5.90;;;3.23;;
1366;SDS011;16877;48.810;9.282;2023-02-28T02:51:33;3.40;;;3.07;;
1366;SDS011;16877;48.810;9.282;2023-02-28T02:54:08;4.33;;;3.30;;
1366;SDS011;16877;48.810;9.282;2023-02-28T02:56:41;4.27;;;3.20;;
1366;SDS011;16877;48.810;9.282;2023-02-28T02:59:11;5.10;;;3.70;;
1366;SDS011;16877;48.810;9.282;2023-02-28T03:01:46;3.63;;;3.10;;
1366;SDS011;16877;48.810;9.282;2023-02-28T03:04:18;4.47;;;3.37;;
1366;SDS011;16877;48.810;9.282;2023-02-28T03:06:49;4.43;;;3.20;;
1366;SDS011;16877;48.810;9.282;2023-02-28T03:09:20;5.87;;;3.50;;
1366;SDS011;16877;48.810;9.282;2023-02-28T03:11:47;4.60;;;3.50;;
1366;SDS011;16877;48.810;9.282;2023-02-28T03:14:29;5.60;;;3.93;;
1366;SDS011;16877;48.810;9.282;2023-02-28T03:17:11;4.80;;;3.43;;
1366;SDS011;16877;48.810;9.282;2023-02-28T03:19:55;5.37;;;3.63;;
1366;SDS011;16877;48.810;9.282;2023-02-28T03:22:45;4.10;;;3.43;;
1366;SDS011;16877;48.810;9.282;2023-02-28T03:25:29;5.83;;;3.70;;
1366;SDS011;16877;48.810;9.282;2023-02-28T03:28:05;5.43;;;3.60;;
1366;SDS011;16877;48.810;9.282;2023-02-28T03:30:40;5.27;;;3.70;;
1366;SDS011;16877;48.810;9.282;2023-02-28T03:33:14;4.53;;;3.30;;
1366;SDS011;16877;48.810;9.282;2023-02-28T03:35:48;4.17;;;3.30;;
1366;SDS011;16877;48.810;9.282;2023-02-28T03:38:22;4.30;;;3.50;;
1366;SDS011;16877;48.810;9.282;2023-02-28T03:40:55;4.30;;;3.57;;
1366;SDS011;16877;48.810;9.282;2023-02-28T03:43:43;4.70;;;4.00;;
1366;SDS011;16877;48.810;9.282;2023-02-28T03:46:18;4.67;;;3.40;;
1366;SDS011;16877;48.810;9.282;2023-02-28T03:48:49;5.30;;;4.27;;
1366;SDS011;16877;48.810;9.282;2023-02-28T03:51:20;5.03;;;3.90;;
1366;SDS011;16877;48.810;9.282;2023-02-28T03:54:08;6.47;;;4.17;;
1366;SDS011;16877;48.810;9.282;2023-02-28T03:56:40;4.80;;;3.47;;
1366;SDS011;16877;48.810;9.282;2023-02-28T03:59:12;5.37;;;4.07;;
1366;SDS011;16877;48.810;9.282;2023-02-28T04:01:42;4.30;;;3.57;;
1366;SDS011;16877;48.810;9.282;2023-02-28T04:04:11;4.50;;;3.50;;
1366;SDS011;16877;48.810;9.282;2023-02-28T04:06:40;4.37;;;3.97;;
1366;SDS011;16877;48.810;9.282;2023-02-28T04:09:12;5.73;;;4.30;;
1366;SDS011;16877;48.810;9.282;2023-02-28T04:11:41;5.73;;;3.97;;
1366;SDS011;16877;48.810;9.282;2023-02-28T04:14:10;5.57;;;3.97;;
1366;SDS011;16877;48.810;9.282;2023-02-28T04:16:39;5.20;;;4.23;;
1366;SDS011;16877;48.810;9.282;2023-02-28T04:19:08;5.17;;;3.70;;
1366;SDS011;16877;48.810;9.282;2023-02-28T04:21:38;5.23;;;3.63;;
1366;SDS011;16877;48.810;9.282;2023-02-28T04:24:07;4.80;;;3.67;;
1366;SDS011;16877;48.810;9.282;2023-02-28T04:26:41;5.23;;;4.30;;
1366;SDS011;16877;48.810;9.282;2023-02-28T04:29:10;5.87;;;4.00;;
1366;SDS011;16877;48.810;9.282;2023-02-28T04:31:40;5.70;;;4.27;;
1366;SDS011;16877;48.810;9.282;2023-02-28T04:34:07;5.60;;;3.30;;
1366;SDS011;16877;48.810;9.282;2023-02-28T04:36:34;5.73;;;4.27;;
1366;SDS011;16877;48.810;9.282;2023-02-28T04:39:02;4.53;;;3.80;;
1366;SDS011;16877;48.810;9.282;2023-02-28T04:41:29;4.30;;;3.80;;
1366;SDS011;16877;48.810;9.282;2023-02-28T04:43:58;6.13;;;4.20;;
1366;SDS011;16877;48.810;9.282;2023-02-28T04:46:25;5.33;;;4.60;;
1366;SDS011;16877;48.810;9.282;2023-02-28T04:48:55;6.27;;;4.43;;
1366;SDS011;16877;48.810;9.282;2023-02-28T04:51:27;5.57;;;4.23;;
1366;SDS011;16877;48.810;9.282;2023-02-28T04:53:59;5.57;;;4.63;;
1366;SDS011;16877;48.810;9.282;2023-02-28T04:56:26;5.07;;;4.10;;
1366;SDS011;16877;48.810;9.282;2023-02-28T04:58:58;6.30;;;4.40;;
1366;SDS011;16877;48.810;9.282;2023-02-28T05:01:29;7.90;;;5.60;;
1366;SDS011;16877;48.810;9.282;2023-02-28T05:03:59;5.10;;;4.33;;
1366;SDS011;16877;48.810;9.282;2023-02-28T05:06:30;5.70;;;4.83;;
1366;SDS011;16877;48.810;9.282;2023-02-28T05:08:59;8.03;;;5.03;;
1366;SDS011;16877;48.810;9.282;2023-02-28T05:11:28;6.17;;;4.50;;
1366;SDS011;16877;48.810;9.282;2023-02-28T05:14:06;6.70;;;5.53;;
1366;SDS011;16877;48.810;9.282;2023-02-28T05:16:39;4.90;;;4.23;;
1366;SDS011;16877;48.810;9.282;2023-02-28T05:19:09;6.00;;;5.17;;
1366;SDS011;16877;48.810;9.282;2023-02-28T05:21:38;6.20;;;4.13;;
1366;SDS011;16877;48.810;9.282;2023-02-28T05:24:11;6.70;;;5.27;;
1366;SDS011;16877;48.810;9.282;2023-02-28T05:26:40;5.33;;;4.17;;
1366;SDS011;16877;48.810;9.282;2023-02-28T05:29:16;5.97;;;4.53;;
1366;SDS011;16877;48.810;9.282;2023-02-28T05:31:44;6.27;;;5.37;;
1366;SDS011;16877;48.810;9.282;2023-02-28T05:34:12;5.87;;;4.70;;
1366;SDS011;16877;48.810;9.282;2023-02-28T05:36:41;4.97;;;4.13;;
1366;SDS011;16877;48.810;9.282;2023-02-28T05:39:10;5.97;;;5.07;;
1366;SDS011;16877;48.810;9.282;2023-02-28T05:41:43;6.47;;;5.27;;
1366;SDS011;16877;48.810;9.282;2023-02-28T05:44:26;6.70;;;5.00;;
1366;SDS011;16877;48.810;9.282;2023-02-28T05:46:55;6.67;;;5.67;;
1366;SDS011;16877;48.810;9.282;2023-02-28T05:49:23;5.70;;;4.80;;
1366;SDS011;16877;48.810;9.282;2023-02-28T05:51:56;6.77;;;5.07;;
1366;SDS011;16877;48.810;9.282;2023-02-28T05:54:26;5.30;;;4.53;;
1366;SDS011;16877;48.810;9.282;2023-02-28T05:56:55;7.13;;;5.83;;
1366;SDS011;16877;48.810;9.282;2023-02-28T05:59:24;6.33;;;5.73;;
1366;SDS011;16877;48.810;9.282;2023-02-28T06:01:59;6.93;;;5.30;;
1366;SDS011;16877;48.810;9.282;2023-02-28T06:04:35;5.33;;;4.40;;
1366;SDS011;16877;48.810;9.282;2023-02-28T06:07:03;5.70;;;4.80;;
1366;SDS011;16877;48.810;9.282;2023-02-28T06:09:35;6.47;;;5.30;;
1366;SDS011;16877;48.810;9.282;2023-02-28T06:12:03;5.60;;;5.00;;
1366;SDS011;16877;48.810;9.282;2023-02-28T06:14:36;7.00;;;5.20;;
1366;SDS011;16877;48.810;9.282;2023-02-28T06:17:04;5.80;;;5.20;;
1366;SDS011;16877;48.810;9.282;2023-02-28T06:19:32;6.33;;;5.37;;
1366;SDS011;16877;48.810;9.282;2023-02-28T06:22:02;6.00;;;5.40;;
1366;SDS011;16877;48.810;9.282;2023-02-28T06:24:30;5.90;;;5.30;;
1366;SDS011;16877;48.810;9.282;2023-02-28T06:26:58;5.60;;;5.03;;
1366;SDS011;16877;48.810;9.282;2023-02-28T06:29:30;6.23;;;5.40;;
1366;SDS011;16877;48.810;9.282;2023-02-28T06:32:00;7.00;;;6.20;;
1366;SDS011;16877;48.810;9.282;2023-02-28T06:34:29;6.73;;;6.00;;
1366;SDS011;16877;48.810;9.282;2023-02-28T06:36:58;6.37;;;5.30;;
1366;SDS011;16877;48.810;9.282;2023-02-28T06:39:51;8.60;;;5.80;;
1366;SDS011;16877;48.810;9.282;2023-02-28T06:42:24;6.80;;;5.97;;
1366;SDS011;16877;48.810;9.282;2023-02-28T06:44:54;7.33;;;6.17;;
1366;SDS011;16877;48.810;9.282;2023-02-28T06:47:25;7.13;;;6.20;;
1366;SDS011;16877;48.810;9.282;2023-02-28T06:49:59;8.30;;;6.00;;
1366;SDS011;16877;48.810;9.282;2023-02-28T06:52:28;8.17;;;5.90;;
1366;SDS011;16877;48.810;9.282;2023-02-28T06:54:55;7.43;;;6.17;;
1366;SDS011;16877;48.810;9.282;2023-02-28T06:57:28;6.30;;;5.70;;
1366;SDS011;16877;48.810;9.282;2023-02-28T06:59:58;8.83;;;6.23;;
1366;SDS011;16877;48.810;9.282;2023-02-28T07:02:28;7.90;;;6.70;;
1366;SDS011;16877;48.810;9.282;2023-02-28T07:04:56;8.40;;;6.27;;
1366;SDS011;16877;48.810;9.282;2023-02-28T07:07:24;7.23;;;5.87;;
1366;SDS011;16877;48.810;9.282;2023-02-28T07:09:52;7.33;;;6.63;;
1366;SDS011;16877;48.810;9.282;2023-02-28T07:12:19;7.67;;;6.00;;
1366;SDS011;16877;48.810;9.282;2023-02-28T07:14:47;7.43;;;6.47;;
1366;SDS011;16877;48.810;9.282;2023-02-28T07:17:14;6.43;;;5.83;;
1366;SDS011;16877;48.810;9.282;2023-02-28T07:19:43;7.00;;;5.80;;
1366;SDS011;16877;48.810;9.282;2023-02-28T07:22:11;7.37;;;6.53;;
1366;SDS011;16877;48.810;9.282;2023-02-28T07:24:53;6.93;;;6.33;;
1366;SDS011;16877;48.810;9.282;2023-02-28T07:27:31;8.60;;;6.80;;
1366;SDS011;16877;48.810;9.282;2023-02-28T07:29:59;8.60;;;6.73;;
1366;SDS011;16877;48.810;9.282;2023-02-28T07:32:28;8.77;;;6.33;;
1366;SDS011;16877;48.810;9.282;2023-02-28T07:35:18;7.73;;;6.93;;
1366;SDS011;16877;48.810;9.282;2023-02-28T07:37:49;7.57;;;6.80;;
1366;SDS011;16877;48.810;9.282;2023-02-28T07:40:16;7.37;;;6.67;;
1366;SDS011;16877;48.810;9.282;2023-02-28T07:42:44;9.07;;;6.23;;
1366;SDS011;16877;48.810;9.282;2023-02-28T07:45:11;7.50;;;6.70;;
1366;SDS011;16877;48.810;9.282;2023-02-28T07:47:39;9.20;;;7.50;;
1366;SDS011;16877;48.810;9.282;2023-02-28T07:50:12;7.23;;;6.53;;
1366;SDS011;16877;48.810;9.282;2023-02-28T07:52:41;11.80;;;6.80;;
1366;SDS011;16877;48.810;9.282;2023-02-28T07:55:09;7.63;;;6.93;;
1366;SDS011;16877;48.810;9.282;2023-02-28T07:57:39;5.43;;;2.70;;
1366;SDS011;16877;48.810;9.282;2023-02-28T08:00:07;5.20;;;3.60;;
1366;SDS011;16877;48.810;9.282;2023-02-28T08:02:37;5.43;;;4.90;;
1366;SDS011;16877;48.810;9.282;2023-02-28T08:05:05;8.23;;;6.13;;
1366;SDS011;16877;48.810;9.282;2023-02-28T08:07:35;7.27;;;6.37;;
1366;SDS011;16877;48.810;9.282;2023-02-28T08:10:04;7.83;;;6.80;;
1366;SDS011;16877;48.810;9.282;2023-02-28T08:12:32;7.40;;;6.70;;
1366;SDS011;16877;48.810;9.282;2023-02-28T08:15:00;8.43;;;7.57;;
1366;SDS011;16877;48.810;9.282;2023-02-28T08:17:27;11.23;;;7.43;;
1366;SDS011;16877;48.810;9.282;2023-02-28T08:19:54;7.77;;;7.07;;
1366;SDS011;16877;48.810;9.282;2023-02-28T08:22:24;8.20;;;7.20;;
1366;SDS011;16877;48.810;9.282;2023-02-28T08:24:54;8.13;;;7.33;;
1366;SDS011;16877;48.810;9.282;2023-02-28T08:27:22;8.63;;;7.73;;
1366;SDS011;16877;48.810;9.282;2023-02-28T08:29:50;9.07;;;8.17;;
1366;SDS011;16877;48.810;9.282;2023-02-28T08:32:17;10.77;;;8.37;;
1366;SDS011;16877;48.810;9.282;2023-02-28T08:34:45;9.10;;;8.20;;
1366;SDS011;16877;48.810;9.282;2023-02-28T08:37:12;9.30;;;7.83;;
1366;SDS011;16877;48.810;9.282;2023-02-28T08:39:40;7.20;;;6.50;;
1366;SDS011;16877;48.810;9.282;2023-02-28T08:42:09;9.20;;;8.23;;
1366;SDS011;16877;48.810;9.282;2023-02-28T08:44:36;7.87;;;6.57;;
1366;SDS011;16877;48.810;9.282;2023-02-28T08:47:05;7.97;;;7.00;;
1366;SDS011;16877;48.810;9.282;2023-02-28T08:49:33;9.67;;;8.67;;
1366;SDS011;16877;48.810;9.282;2023-02-28T08:52:00;11.73;;;7.57;;
1366;SDS011;16877;48.810;9.282;2023-02-28T08:54:29;8.03;;;7.23;;
1366;SDS011;16877;48.810;9.282;2023-02-28T08:56:59;8.57;;;7.77;;
1366;SDS011;16877;48.810;9.282;2023-02-28T08:59:28;9.20;;;8.30;;
1366;SDS011;16877;48.810;9.282;2023-02-28T09:01:56;9.47;;;7.80;;
1366;SDS011;16877;48.810;9.282;2023-02-28T09:04:23;8.60;;;7.40;;
1366;SDS011;16877;48.810;9.282;2023-02-28T09:06:51;9.20;;;8.30;;
1366;SDS011;16877;48.810;9.282;2023-02-28T09:09:27;8.77;;;7.87;;
1366;SDS011;16877;48.810;9.282;2023-02-28T09:11:55;9.60;;;8.60;;
1366;SDS011;16877;48.810;9.282;2023-02-28T09:14:23;9.17;;;8.23;;
1366;SDS011;16877;48.810;9.282;2023-02-28T09:16:52;9.10;;;7.90;;
1366;SDS011;16877;48.810;9.282;2023-02-28T09:19:19;10.33;;;8.63;;
1366;SDS011;16877;48.810;9.282;2023-02-28T09:21:47;8.70;;;7.90;;
1366;SDS011;16877;48.810;9.282;2023-02-28T09:24:29;10.97;;;8.80;;
1366;SDS011;16877;48.810;9.282;2023-02-28T09:26:57;8.47;;;7.57;;
1366;SDS011;16877;48.810;9.282;2023-02-28T09:29:29;9.73;;;8.67;;
1366;SDS011;16877;48.810;9.282;2023-02-28T09:31:59;9.10;;;7.83;;
1366;SDS011;16877;48.810;9.282;2023-02-28T09:34:26;10.57;;;8.03;;
1366;SDS011;16877;48.810;9.282;2023-02-28T09:36:56;10.13;;;9.10;;
1366;SDS011;16877;48.810;9.282;2023-02-28T09:39:28;9.40;;;8.40;;
1366;SDS011;16877;48.810;9.282;2023-02-28T09:41:58;9.23;;;8.33;;
1366;SDS011;16877;48.810;9.282;2023-02-28T09:44:33;9.20;;;8.30;;
1366;SDS011;16877;48.810;9.282;2023-02-28T09:47:10;9.13;;;8.20;;
1366;SDS011;16877;48.810;9.282;2023-02-28T09:49:43;10.43;;;8.50;;
1366;SDS011;16877;48.810;9.282;2023-02-28T09:52:14;9.40;;;8.40;;
1366;SDS011;16877;48.810;9.282;2023-02-28T09:54:44;10.23;;;9.23;;
1366;SDS011;16877;48.810;9.282;2023-02-28T09:57:14;10.97;;;9.87;;
1366;SDS011;16877;48.810;9.282;2023-02-28T09:59:53;8.93;;;8.03;;
1366;SDS011;16877;48.810;9.282;2023-02-28T10:05:47;11.30;;;10.17;;
1366;SDS011;16877;48.810;9.282;2023-02-28T10:08:19;9.03;;;8.23;;
1366;SDS011;16877;48.810;9.282;2023-02-28T10:10:57;9.70;;;8.70;;
1366;SDS011;16877;48.810;9.282;2023-02-28T10:13:27;9.80;;;8.80;;
1366;SDS011;16877;48.810;9.282;2023-02-28T10:16:15;9.97;;;8.97;;
1366;SDS011;16877;48.810;9.282;2023-02-28T10:18:47;10.93;;;9.90;;
1366;SDS011;16877;48.810;9.282;2023-02-28T10:21:21;11.37;;;10.27;;
1366;SDS011;16877;48.810;9.282;2023-02-28T10:23:55;9.30;;;8.07;;
1366;SDS011;16877;48.810;9.282;2023-02-28T10:26:28;9.93;;;8.93;;
1366;SDS011;16877;48.810;9.282;2023-02-28T10:28:58;10.90;;;9.80;;
1366;SDS011;16877;48.810;9.282;2023-02-28T10:31:27;10.80;;;9.60;;
1366;SDS011;16877;48.810;9.282;2023-02-28T10:33:55;10.30;;;9.40;;
1366;SDS011;16877;48.810;9.282;2023-02-28T10:36:24;10.70;;;9.60;;
1366;SDS011;16877;48.810;9.282;2023-02-28T10:38:53;9.93;;;8.80;;
1366;SDS011;16877;48.810;9.282;2023-02-28T10:41:27;10.80;;;9.80;;
1366;SDS011;16877;48.810;9.282;2023-02-28T10:44:14;11.13;;;10.00;;
1366;SDS011;16877;48.810;9.282;2023-02-28T10:47:01;10.17;;;9.27;;
1366;SDS011;16877;48.810;9.282;2023-02-28T10:49:28;9.73;;;8.63;;
1366;SDS011;16877;48.810;9.282;2023-02-28T10:51:59;9.63;;;8.73;;
1366;SDS011;16877;48.810;9.282;2023-02-28T10:54:29;9.60;;;8.70;;
1366;SDS011;16877;48.810;9.282;2023-02-28T10:57:08;8.97;;;8.13;;
1366;SDS011;16877;48.810;9.282;2023-02-28T10:59:52;9.20;;;8.40;;
1366;SDS011;16877;48.810;9.282;2023-02-28T11:02:32;9.00;;;8.20;;
1366;SDS011;16877;48.810;9.282;2023-02-28T11:05:02;10.67;;;9.33;;
1366;SDS011;16877;48.810;9.282;2023-02-28T11:07:52;9.50;;;8.50;;
1366;SDS011;16877;48.810;9.282;2023-02-28T11:10:21;9.00;;;8.10;;
1366;SDS011;16877;48.810;9.282;2023-02-28T11:12:54;9.93;;;8.93;;
1366;SDS011;16877;48.810;9.282;2023-02-28T11:15:23;10.67;;;9.57;;
1366;SDS011;16877;48.810;9.282;2023-02-28T11:17:56;9.17;;;8.37;;
1366;SDS011;16877;48.810;9.282;2023-02-28T11:20:25;10.50;;;8.40;;
1366;SDS011;16877;48.810;9.282;2023-02-28T11:22:58;9.77;;;8.93;;
1366;SDS011;16877;48.810;9.282;2023-02-28T11:25:29;10.17;;;9.07;;
1366;SDS011;16877;48.810;9.282;2023-02-28T11:27:59;9.30;;;8.40;;
1366;SDS011;16877;48.810;9.282;2023-02-28T11:30:33;9.07;;;7.90;;
1366;SDS011;16877;48.810;9.282;2023-02-28T11:33:16;8.77;;;7.97;;
1366;SDS011;16877;48.810;9.282;2023-02-28T11:35:50;9.60;;;8.70;;
1366;SDS011;16877;48.810;9.282;2023-02-28T11:38:35;8.33;;;7.53;;
1366;SDS011;16877;48.810;9.282;2023-02-28T11:41:08;9.30;;;8.40;;
1366;SDS011;16877;48.810;9.282;2023-02-28T11:43:56;9.13;;;8.20;;
1366;SDS011;16877;48.810;9.282;2023-02-28T11:46:34;8.50;;;7.60;;
1366;SDS011;16877;48.810;9.282;2023-02-28T11:49:13;8.17;;;7.37;;
1366;SDS011;16877;48.810;9.282;2023-02-28T11:51:50;7.83;;;7.10;;
1366;SDS011;16877;48.810;9.282;2023-02-28T11:57:31;8.00;;;7.20;;
1366;SDS011;16877;48.810;9.282;2023-02-28T12:00:24;7.40;;;6.73;;
1366;SDS011;16877;48.810;9.282;2023-02-28T12:03:03;7.90;;;7.10;;
1366;SDS011;16877;48.810;9.282;2023-02-28T12:05:43;4.50;;;3.30;;
1366;SDS011;16877;48.810;9.282;2023-02-28T12:08:20;4.10;;;2.97;;
1366;SDS011;16877;48.810;9.282;2023-02-28T12:11:03;3.90;;;3.33;;
1366;SDS011;16877;48.810;9.282;2023-02-28T12:13:39;5.00;;;3.80;;
1366;SDS011;16877;48.810;9.282;2023-02-28T12:16:20;5.67;;;3.80;;
1366;SDS011;16877;48.810;9.282;2023-02-28T12:19:07;5.43;;;4.00;;
1366;SDS011;16877;48.810;9.282;2023-02-28T12:21:48;4.77;;;4.27;;
1366;SDS011;16877;48.810;9.282;2023-02-28T12:24:39;4.60;;;4.10;;
1366;SDS011;16877;48.810;9.282;2023-02-28T12:27:21;7.77;;;4.17;;
1366;SDS011;16877;48.810;9.282;2023-02-28T12:29:55;6.20;;;4.60;;
1366;SDS011;16877;48.810;9.282;2023-02-28T12:32:26;4.73;;;4.23;;
1366;SDS011;16877;48.810;9.282;2023-02-28T12:34:57;3.57;;;3.20;;
1366;SDS011;16877;48.810;9.282;2023-02-28T12:37:29;5.07;;;3.30;;
1366;SDS011;16877;48.810;9.282;2023-02-28T12:40:04;4.90;;;3.93;;
1366;SDS011;16877;48.810;9.282;2023-02-28T12:42:42;6.13;;;5.30;;
1366;SDS011;16877;48.810;9.282;2023-02-28T12:45:20;5.47;;;4.60;;
1366;SDS011;16877;48.810;9.282;2023-02-28T12:47:52;4.73;;;4.23;;
1366;SDS011;16877;48.810;9.282;2023-02-28T12:50:25;5.10;;;4.57;;
1366;SDS011;16877;48.810;9.282;2023-02-28T12:52:59;6.17;;;4.50;;
1366;SDS011;16877;48.810;9.282;2023-02-28T12:55:31;6.60;;;5.20;;
1366;SDS011;16877;48.810;9.282;2023-02-28T12:58:10;6.70;;;6.00;;
1366;SDS011;16877;48.810;9.282;2023-02-28T13:00:45;7.07;;;6.37;;
1366;SDS011;16877;48.810;9.282;2023-02-28T13:03:32;8.53;;;6.80;;
1366;SDS011;16877;48.810;9.282;2023-02-28T13:06:17;10.00;;;8.00;;
1366;SDS011;16877;48.810;9.282;2023-02-28T13:09:03;8.60;;;7.67;;
1366;SDS011;16877;48.810;9.282;2023-02-28T13:11:38;9.03;;;6.73;;
1366;SDS011;16877;48.810;9.282;2023-02-28T13:14:18;8.20;;;6.60;;
1366;SDS011;16877;48.810;9.282;2023-02-28T13:16:56;9.30;;;7.03;;
1366;SDS011;16877;48.810;9.282;2023-02-28T13:19:27;10.10;;;6.83;;
1366;SDS011;16877;48.810;9.282;2023-02-28T13:21:56;9.27;;;6.80;;
1366;SDS011;16877;48.810;9.282;2023-02-28T13:24:43;10.00;;;7.27;;
1366;SDS011;16877;48.810;9.282;2023-02-28T13:27:33;7.80;;;6.53;;
1366;SDS011;16877;48.810;9.282;2023-02-28T13:36:27;8.03;;;6.47;;
1366;SDS011;16877;48.810;9.282;2023-02-28T13:38:56;7.13;;;5.87;;
1366;SDS011;16877;48.810;9.282;2023-02-28T13:41:42;7.43;;;6.30;;
1366;SDS011;16877;48.810;9.282;2023-02-28T13:44:14;8.27;;;6.93;;
1366;SDS011;16877;48.810;9.282;2023-02-28T13:49:52;7.40;;;6.23;;
1366;SDS011;16877;48.810;9.282;2023-02-28T13:52:20;9.03;;;6.70;;
1366;SDS011;16877;48.810;9.282;2023-02-28T13:54:52;7.70;;;6.33;;
1366;SDS011;16877;48.810;9.282;2023-02-28T13:57:45;9.20;;;7.07;;
1366;SDS011;16877;48.810;9.282;2023-02-28T14:00:40;9.23;;;6.90;;
1366;SDS011;16877;48.810;9.282;2023-02-28T14:03:23;10.07;;;6.37;;
1366;SDS011;16877;48.810;9.282;2023-02-28T14:06:14;9.87;;;6.87;;
1366;SDS011;16877;48.810;9.282;2023-02-28T14:08:50;10.00;;;7.33;;
1366;SDS011;16877;48.810;9.282;2023-02-28T14:11:27;10.33;;;6.97;;
1366;SDS011;16877;48.810;9.282;2023-02-28T14:13:58;12.33;;;6.93;;
1366;SDS011;16877;48.810;9.282;2023-02-28T14:16:27;10.03;;;7.27;;
1366;SDS011;16877;48.810;9.282;2023-02-28T14:19:05;10.00;;;6.10;;
1366;SDS011;16877;48.810;9.282;2023-02-28T14:21:43;8.90;;;6.93;;
1366;SDS011;16877;48.810;9.282;2023-02-28T14:24:30;11.20;;;7.70;;
1366;SDS011;16877;48.810;9.282;2023-02-28T14:27:34;11.20;;;7.57;;
1366;SDS011;16877;48.810;9.282;2023-02-28T14:30:11;10.50;;;7.63;;
1366;SDS011;16877;48.810;9.282;2023-02-28T14:33:08;11.47;;;9.10;;
1366;SDS011;16877;48.810;9.282;2023-02-28T14:35:50;10.93;;;8.67;;
1366;SDS011;16877;48.810;9.282;2023-02-28T14:38:30;10.70;;;9.33;;
1366;SDS011;16877;48.810;9.282;2023-02-28T14:41:00;11.10;;;9.50;;
1366;SDS011;16877;48.810;9.282;2023-02-28T14:43:32;11.13;;;9.83;;
1366;SDS011;16877;48.810;9.282;2023-02-28T14:45:59;12.53;;;9.73;;
1366;SDS011;16877;48.810;9.282;2023-02-28T14:48:28;11.93;;;9.83;;
1366;SDS011;16877;48.810;9.282;2023-02-28T14:50:56;11.97;;;10.57;;
1366;SDS011;16877;48.810;9.282;2023-02-28T14:53:26;18.43;;;16.70;;
1366;SDS011;16877;48.810;9.282;2023-02-28T14:55:58;20.03;;;17.93;;
1366;SDS011;16877;48.810;9.282;2023-02-28T14:58:26;21.43;;;19.33;;
1366;SDS011;16877;48.810;9.282;2023-02-28T15:00:56;20.30;;;18.00;;
1366;SDS011;16877;48.810;9.282;2023-02-28T15:03:28;21.30;;;18.00;;
1366;SDS011;16877;48.810;9.282;2023-02-28T15:06:00;21.57;;;16.13;;
1366;SDS011;16877;48.810;9.282;2023-02-28T15:08:30;18.33;;;15.70;;
1366;SDS011;16877;48.810;9.282;2023-02-28T15:11:02;18.20;;;15.53;;
1366;SDS011;16877;48.810;9.282;2023-02-28T15:13:34;16.13;;;13.43;;
1366;SDS011;16877;48.810;9.282;2023-02-28T15:16:06;16.87;;;15.00;;
1366;SDS011;16877;48.810;9.282;2023-02-28T15:18:40;14.47;;;13.07;;
1366;SDS011;16877;48.810;9.282;2023-02-28T15:21:21;16.77;;;15.17;;
1366;SDS011;16877;48.810;9.282;2023-02-28T15:23:50;13.93;;;12.43;;
1366;SDS011;16877;48.810;9.282;2023-02-28T15:26:22;16.97;;;13.07;;
1366;SDS011;16877;48.810;9.282;2023-02-28T15:29:07;12.40;;;11.07;;
1366;SDS011;16877;48.810;9.282;2023-02-28T15:31:44;13.93;;;12.43;;
1366;SDS011;16877;48.810;9.282;2023-02-28T15:34:31;12.80;;;11.50;;
1366;SDS011;16877;48.810;9.282;2023-02-28T15:37:01;15.50;;;12.00;;
1366;SDS011;16877;48.810;9.282;2023-02-28T15:39:33;18.30;;;13.50;;
1366;SDS011;16877;48.810;9.282;2023-02-28T15:42:12;18.17;;;15.50;;
1366;SDS011;16877;48.810;9.282;2023-02-28T15:44:44;20.63;;;16.40;;
1366;SDS011;16877;48.810;9.282;2023-02-28T15:47:14;16.03;;;13.07;;
1366;SDS011;16877;48.810;9.282;2023-02-28T15:49:45;15.67;;;14.07;;
1366;SDS011;16877;48.810;9.282;2023-02-28T15:52:16;16.87;;;14.70;;